sensor_id;sensor_type;location;lat;lon;timestamp;pressure;altitude;pressure_sealevel;temperature;humidity
48027;BME280;50714;49.208;5.364;2023-07-28T00:09:55;98764.78;;;18.33;100.00
48027;BME280;50714;49.208;5.364;2023-07-28T00:19:56;98752.50;;;18.30;100.00
48027;BME280;50714;49.208;5.364;2023-07-28T00:29:56;98743.22;;;18.31;100.00
48027;BME280;50714;49.208;5.364;2023-07-28T00:39:56;98739.66;;;18.31;100.00
48027;BME280;50714;49.208;5.364;2023-07-28T00:49:57;98729.53;;;18.26;100.00
48027;BME280;50714;49.208;5.364;2023-07-28T00:59:57;98729.81;;;18.25;100.00
48027;BME280;50714;49.208;5.364;2023-07-28T01:20:02;98744.03;;;18.27;100.00
48027;BME280;50714;49.208;5.364;2023-07-28T01:30:03;98738.56;;;18.27;100.00
48027;BME280;50714;49.208;5.364;2023-07-28T01:40:04;98736.91;;;18.26;100.00
48027;BME280;50714;49.208;5.364;2023-07-28T01:50:05;98725.72;;;18.22;100.00
48027;BME280;50714;49.208;5.364;2023-07-28T02:00:06;98727.88;;;18.20;100.00
48027;BME280;50714;49.208;5.364;2023-07-28T02:10:07;98726.53;;;18.23;100.00
48027;BME280;50714;49.208;5.364;2023-07-28T02:20:08;98718.88;;;18.25;100.00
48027;BME280;50714;49.208;5.364;2023-07-28T02:30:12;98709.59;;;18.26;100.00
48027;BME280;50714;49.208;5.364;2023-07-28T02:40:13;98719.97;;;18.24;100.00
48027;BME280;50714;49.208;5.364;2023-07-28T02:50:13;98719.44;;;18.22;100.00
48027;BME280;50714;49.208;5.364;2023-07-28T03:00:14;98722.97;;;18.22;100.00
48027;BME280;50714;49.208;5.364;2023-07-28T03:10:14;98724.63;;;18.23;100.00
48027;BME280;50714;49.208;5.364;2023-07-28T03:20:17;98719.69;;;18.25;100.00
48027;BME280;50714;49.208;5.364;2023-07-28T03:30:17;98729.81;;;18.25;100.00
48027;BME280;50714;49.208;5.364;2023-07-28T03:40:17;98730.06;;;18.23;100.00
48027;BME280;50714;49.208;5.364;2023-07-28T03:50:18;98743.75;;;18.23;100.00
48027;BME280;50714;49.208;5.364;2023-07-28T04:00:18;98748.09;;;18.24;100.00
48027;BME280;50714;49.208;5.364;2023-07-28T04:10:18;98749.19;;;18.23;100.00
48027;BME280;50714;49.208;5.364;2023-07-28T04:20:19;98744.81;;;18.22;100.00
48027;BME280;50714;49.208;5.364;2023-07-28T04:30:19;98751.94;;;18.23;100.00
48027;BME280;50714;49.208;5.364;2023-07-28T04:40:19;98744.00;;;18.22;100.00
48027;BME280;50714;49.208;5.364;2023-07-28T04:50:20;98752.78;;;18.19;100.00
48027;BME280;50714;49.208;5.364;2023-07-28T05:00:20;98758.75;;;18.21;100.00
48027;BME280;50714;49.208;5.364;2023-07-28T05:10:20;98764.75;;;18.23;100.00
48027;BME280;50714;49.208;5.364;2023-07-28T05:20:21;98766.69;;;18.22;100.00
48027;BME280;50714;49.208;5.364;2023-07-28T05:30:21;98774.06;;;18.27;100.00
48027;BME280;50714;49.208;5.364;2023-07-28T05:40:21;98760.97;;;18.29;100.00
48027;BME280;50714;49.208;5.364;2023-07-28T05:50:22;98768.06;;;18.35;100.00
48027;BME280;50714;49.208;5.364;2023-07-28T06:00:22;98771.88;;;18.44;100.00
48027;BME280;50714;49.208;5.364;2023-07-28T06:10:22;98771.63;;;18.51;100.00
48027;BME280;50714;49.208;5.364;2023-07-28T06:20:23;98789.69;;;18.57;100.00
48027;BME280;50714;49.208;5.364;2023-07-28T06:30:23;98793.22;;;18.57;100.00
48027;BME280;50714;49.208;5.364;2023-07-28T06:40:23;98788.84;;;18.56;100.00
48027;BME280;50714;49.208;5.364;2023-07-28T06:50:24;98799.78;;;18.56;100.00
48027;BME280;50714;49.208;5.364;2023-07-28T07:00:24;98809.94;;;18.61;100.00
48027;BME280;50714;49.208;5.364;2023-07-28T07:10:24;98815.66;;;18.69;100.00
48027;BME280;50714;49.208;5.364;2023-07-28T07:20:25;98824.44;;;18.77;100.00
48027;BME280;50714;49.208;5.364;2023-07-28T07:30:26;98831.28;;;18.84;100.00
48027;BME280;50714;49.208;5.364;2023-07-28T07:40:26;98839.19;;;18.91;100.00
48027;BME280;50714;49.208;5.364;2023-07-28T07:50:27;98842.47;;;18.93;100.00
48027;BME280;50714;49.208;5.364;2023-07-28T08:00:28;98843.28;;;18.93;100.00
48027;BME280;50714;49.208;5.364;2023-07-28T08:10:28;98847.41;;;19.06;100.00
48027;BME280;50714;49.208;5.364;2023-07-28T08:20:29;98852.56;;;19.23;100.00
48027;BME280;50714;49.208;5.364;2023-07-28T08:30:29;98858.59;;;19.35;100.00
48027;BME280;50714;49.208;5.364;2023-07-28T08:40:30;98868.94;;;19.43;100.00
48027;BME280;50714;49.208;5.364;2023-07-28T08:50:30;98865.13;;;19.49;100.00
48027;BME280;50714;49.208;5.364;2023-07-28T09:00:31;98873.03;;;19.66;100.00
48027;BME280;50714;49.208;5.364;2023-07-28T09:10:45;98875.22;;;19.64;100.00
48027;BME280;50714;49.208;5.364;2023-07-28T09:20:46;98890.31;;;19.51;100.00
48027;BME280;50714;49.208;5.364;2023-07-28T09:30:48;98890.84;;;19.43;100.00
48027;BME280;50714;49.208;5.364;2023-07-28T09:40:50;98897.72;;;19.35;100.00
48027;BME280;50714;49.208;5.364;2023-07-28T09:50:50;98896.59;;;19.41;100.00
48027;BME280;50714;49.208;5.364;2023-07-28T10:00:51;98906.72;;;19.41;100.00
48027;BME280;50714;49.208;5.364;2023-07-28T10:10:52;98899.09;;;19.33;100.00
48027;BME280;50714;49.208;5.364;2023-07-28T10:20:54;98903.75;;;19.32;100.00
48027;BME280;50714;49.208;5.364;2023-07-28T10:30:55;98907.81;;;19.40;100.00
48027;BME280;50714;49.208;5.364;2023-07-28T10:41:05;98910.81;;;19.38;100.00
48027;BME280;50714;49.208;5.364;2023-07-28T10:51:06;98909.22;;;19.53;100.00
48027;BME280;50714;49.208;5.364;2023-07-28T11:01:06;98911.38;;;19.61;100.00
48027;BME280;50714;49.208;5.364;2023-07-28T11:11:07;98904.56;;;19.53;100.00
48027;BME280;50714;49.208;5.364;2023-07-28T11:21:07;98909.47;;;19.46;100.00
48027;BME280;50714;49.208;5.364;2023-07-28T11:31:08;98903.97;;;19.46;100.00
48027;BME280;50714;49.208;5.364;2023-07-28T11:41:09;98906.44;;;19.68;100.00
48027;BME280;50714;49.208;5.364;2023-07-28T11:51:12;98908.34;;;19.78;100.00
48027;BME280;50714;49.208;5.364;2023-07-28T12:01:13;98921.72;;;19.84;100.00
48027;BME280;50714;49.208;5.364;2023-07-28T12:11:14;98908.28;;;19.93;100.00
48027;BME280;50714;49.208;5.364;2023-07-28T12:21:15;98916.19;;;20.09;100.00
48027;BME280;50714;49.208;5.364;2023-07-28T12:31:15;98922.75;;;20.08;100.00
48027;BME280;50714;49.208;5.364;2023-07-28T12:41:15;98919.72;;;20.15;100.00
48027;BME280;50714;49.208;5.364;2023-07-28T12:51:16;98921.81;;;20.49;100.00
48027;BME280;50714;49.208;5.364;2023-07-28T13:01:16;98930.34;;;20.32;100.00
48027;BME280;50714;49.208;5.364;2023-07-28T13:11:16;98943.53;;;20.30;100.00
48027;BME280;50714;49.208;5.364;2023-07-28T13:21:17;98943.81;;;20.28;100.00
48027;BME280;50714;49.208;5.364;2023-07-28T13:31:17;98931.47;;;20.26;100.00
48027;BME280;50714;49.208;5.364;2023-07-28T13:41:18;98930.13;;;20.18;100.00
48027;BME280;50714;49.208;5.364;2023-07-28T13:51:18;98922.97;;;20.27;100.00
48027;BME280;50714;49.208;5.364;2023-07-28T14:01:18;98934.34;;;20.60;100.00
48027;BME280;50714;49.208;5.364;2023-07-28T14:11:19;98925.19;;;20.80;100.00
48027;BME280;50714;49.208;5.364;2023-07-28T14:21:19;98918.69;;;21.04;100.00
48027;BME280;50714;49.208;5.364;2023-07-28T14:31:19;98922.38;;;21.29;100.00
48027;BME280;50714;49.208;5.364;2023-07-28T14:41:20;98923.78;;;21.26;100.00
48027;BME280;50714;49.208;5.364;2023-07-28T14:51:21;98905.59;;;21.35;100.00
48027;BME280;50714;49.208;5.364;2023-07-28T15:01:21;98899.56;;;21.33;99.07
48027;BME280;50714;49.208;5.364;2023-07-28T15:11:22;98898.72;;;21.38;97.91
48027;BME280;50714;49.208;5.364;2023-07-28T15:21:22;98897.69;;;21.29;97.03
48027;BME280;50714;49.208;5.364;2023-07-28T15:31:23;98893.50;;;21.36;95.57
48027;BME280;50714;49.208;5.364;2023-07-28T15:41:24;98876.66;;;21.48;94.78
48027;BME280;50714;49.208;5.364;2023-07-28T15:51:24;98882.66;;;21.50;93.83
48027;BME280;50714;49.208;5.364;2023-07-28T16:01:25;98875.88;;;21.42;93.48
48027;BME280;50714;49.208;5.364;2023-07-28T16:11:28;98881.72;;;21.36;93.12
48027;BME280;50714;49.208;5.364;2023-07-28T16:21:28;98899.28;;;21.35;92.97
48027;BME280;50714;49.208;5.364;2023-07-28T16:31:28;98888.63;;;21.28;92.80
48027;BME280;50714;49.208;5.364;2023-07-28T16:41:29;98878.75;;;21.27;93.24
48027;BME280;50714;49.208;5.364;2023-07-28T16:51:29;98886.16;;;21.27;93.57
48027;BME280;50714;49.208;5.364;2023-07-28T17:01:29;98886.53;;;21.15;93.57
48027;BME280;50714;49.208;5.364;2023-07-28T17:11:30;98872.28;;;21.13;94.00
48027;BME280;50714;49.208;5.364;2023-07-28T17:21:30;98864.31;;;21.11;94.16
48027;BME280;50714;49.208;5.364;2023-07-28T17:31:30;98861.44;;;20.98;94.80
48027;BME280;50714;49.208;5.364;2023-07-28T17:41:31;98874.41;;;20.87;96.48
48027;BME280;50714;49.208;5.364;2023-07-28T17:51:31;98889.50;;;20.85;97.27
48027;BME280;50714;49.208;5.364;2023-07-28T18:01:32;98897.44;;;20.86;97.92
48027;BME280;50714;49.208;5.364;2023-07-28T18:11:33;98872.22;;;20.84;98.39
48027;BME280;50714;49.208;5.364;2023-07-28T18:21:33;98873.31;;;20.83;100.00
48027;BME280;50714;49.208;5.364;2023-07-28T18:31:34;98880.47;;;20.79;100.00
48027;BME280;50714;49.208;5.364;2023-07-28T18:41:34;98872.84;;;20.76;100.00
48027;BME280;50714;49.208;5.364;2023-07-28T18:51:35;98870.38;;;20.74;100.00
48027;BME280;50714;49.208;5.364;2023-07-28T19:01:35;98862.75;;;20.66;100.00
48027;BME280;50714;49.208;5.364;2023-07-28T19:11:35;98861.75;;;20.52;100.00
48027;BME280;50714;49.208;5.364;2023-07-28T19:21:35;98875.22;;;20.43;100.00
48027;BME280;50714;49.208;5.364;2023-07-28T19:31:36;98886.50;;;20.37;100.00
48027;BME280;50714;49.208;5.364;2023-07-28T19:41:36;98878.56;;;20.30;100.00
48027;BME280;50714;49.208;5.364;2023-07-28T19:51:37;98882.91;;;19.67;100.00
48027;BME280;50714;49.208;5.364;2023-07-28T20:01:37;98865.44;;;19.32;100.00
48027;BME280;50714;49.208;5.364;2023-07-28T20:11:37;98861.31;;;19.15;100.00
48027;BME280;50714;49.208;5.364;2023-07-28T20:21:38;98874.19;;;19.04;100.00
48027;BME280;50714;49.208;5.364;2023-07-28T20:31:38;98861.88;;;19.01;100.00
48027;BME280;50714;49.208;5.364;2023-07-28T20:41:39;98864.63;;;18.96;100.00
48027;BME280;50714;49.208;5.364;2023-07-28T20:51:39;98869.25;;;18.96;100.00
48027;BME280;50714;49.208;5.364;2023-07-28T21:01:39;98879.38;;;19.00;100.00
48027;BME280;50714;49.208;5.364;2023-07-28T21:11:40;98867.09;;;19.08;100.00
48027;BME280;50714;49.208;5.364;2023-07-28T21:21:40;98851.22;;;19.00;100.00
48027;BME280;50714;49.208;5.364;2023-07-28T21:31:40;98846.84;;;18.99;100.00
48027;BME280;50714;49.208;5.364;2023-07-28T21:41:41;98851.22;;;19.05;100.00
48027;BME280;50714;49.208;5.364;2023-07-28T21:51:41;98867.63;;;19.10;100.00
48027;BME280;50714;49.208;5.364;2023-07-28T22:01:41;98871.19;;;19.11;100.00
48027;BME280;50714;49.208;5.364;2023-07-28T22:11:41;98853.69;;;19.12;100.00
48027;BME280;50714;49.208;5.364;2023-07-28T22:21:42;98858.88;;;19.18;100.00
48027;BME280;50714;49.208;5.364;2023-07-28T22:31:43;98852.31;;;19.24;100.00
48027;BME280;50714;49.208;5.364;2023-07-28T22:41:43;98867.63;;;19.30;100.00
48027;BME280;50714;49.208;5.364;2023-07-28T22:51:44;98865.69;;;19.36;100.00
48027;BME280;50714;49.208;5.364;2023-07-28T23:01:44;98857.75;;;19.39;100.00
48027;BME280;50714;49.208;5.364;2023-07-28T23:11:45;98860.19;;;19.41;100.00
48027;BME280;50714;49.208;5.364;2023-07-28T23:21:45;98847.34;;;19.41;100.00
48027;BME280;50714;49.208;5.364;2023-07-28T23:31:45;98861.56;;;19.43;100.00
48027;BME280;50714;49.208;5.364;2023-07-28T23:41:46;98857.72;;;19.45;100.00
48027;BME280;50714;49.208;5.364;2023-07-28T23:51:46;98856.38;;;19.47;100.00
